createdAt,value
2022-08-05T00:02:27.169Z,25.76
2022-08-05T00:04:56.065Z,25.80
2022-08-05T00:07:58.617Z,25.72
2022-08-05T00:10:10.684Z,25.73
2022-08-05T00:12:56.101Z,25.68
2022-08-05T00:15:58.207Z,25.58
2022-08-05T00:18:10.587Z,25.37
2022-08-05T00:20:48.954Z,25.45
2022-08-05T00:23:15.847Z,25.40
2022-08-05T00:25:45.458Z,25.32
2022-08-05T00:28:13.224Z,25.30
2022-08-05T00:30:41.246Z,25.15
2022-08-05T00:34:42.280Z,25.20
2022-08-05T00:36:16.607Z,25.24
2022-08-05T00:38:45.223Z,25.18
2022-08-05T00:41:12.834Z,25.06
2022-08-05T00:43:47.357Z,25.11
2022-08-05T00:46:16.633Z,24.94
2022-08-05T00:48:50.903Z,25.15
2022-08-05T00:51:50.382Z,25.15
2022-08-05T00:54:06.109Z,25.04
2022-08-05T00:56:32.767Z,25.01
2022-08-05T00:59:00.338Z,25.00
2022-08-05T01:01:42.699Z,25.01
2022-08-05T01:04:15.707Z,24.90
2022-08-05T01:06:43.693Z,24.86
2022-08-05T01:09:14.769Z,24.74
2022-08-05T01:11:44.308Z,24.77
2022-08-05T01:14:42.800Z,24.85
2022-08-05T01:17:13.557Z,24.74
2022-08-05T01:20:00.754Z,24.73
2022-08-05T01:22:57.478Z,24.60
2022-08-05T01:25:53.218Z,24.50
2022-08-05T01:28:31.460Z,24.48
2022-08-05T01:31:21.537Z,24.47
2022-08-05T01:34:04.742Z,24.51
2022-08-05T01:36:36.280Z,24.63
2022-08-05T01:39:10.913Z,24.58
2022-08-05T01:41:38.149Z,24.58
2022-08-05T01:44:13.116Z,24.47
2022-08-05T01:46:46.644Z,24.40
2022-08-05T01:49:24.356Z,24.32
2022-08-05T01:51:58.437Z,24.30
2022-08-05T01:54:30.456Z,24.22
2022-08-05T01:58:11.257Z,24.32
2022-08-05T01:59:47.529Z,24.06
2022-08-05T02:02:16.047Z,23.95
2022-08-05T02:04:49.549Z,23.94
2022-08-05T02:07:22.003Z,23.90
2022-08-05T02:09:50.138Z,23.92
2022-08-05T02:12:20.656Z,23.89
2022-08-05T02:14:52.555Z,23.83
2022-08-05T02:18:14.524Z,23.85
2022-08-05T02:20:22.177Z,23.82
2022-08-05T02:22:56.758Z,23.77
2022-08-05T02:25:33.384Z,23.53
2022-08-05T02:28:15.583Z,23.63
2022-08-05T02:30:58.714Z,23.63
2022-08-05T02:33:36.070Z,23.66
2022-08-05T02:36:09.404Z,23.56
2022-08-05T02:38:37.747Z,23.60
2022-08-05T02:41:17.048Z,23.53
2022-08-05T02:44:02.964Z,23.63
2022-08-05T02:46:35.620Z,23.56
2022-08-05T02:49:13.418Z,23.57
2022-08-05T02:52:01.142Z,23.57
2022-08-05T02:54:35.959Z,23.65
2022-08-05T02:57:10.281Z,23.67
2022-08-05T02:59:54.247Z,23.65
2022-08-05T03:02:24.547Z,23.66
2022-08-05T03:04:57.446Z,23.67
2022-08-05T03:08:00.979Z,23.62
2022-08-05T03:10:15.638Z,23.68
2022-08-05T03:12:51.939Z,23.61
2022-08-05T03:15:23.496Z,23.61
2022-08-05T03:17:50.412Z,23.73
2022-08-05T03:20:21.069Z,23.46
2022-08-05T03:22:49.905Z,23.48
2022-08-05T03:26:03.922Z,23.46
2022-08-05T03:28:08.427Z,23.46
2022-08-05T03:30:36.695Z,23.43
2022-08-05T03:33:06.357Z,23.48
2022-08-05T03:35:40.995Z,23.46
2022-08-05T03:38:11.017Z,23.52
2022-08-05T03:40:47.237Z,23.54
2022-08-05T03:43:59.106Z,23.55
2022-08-05T03:46:04.336Z,23.51
2022-08-05T03:48:35.399Z,23.57
2022-08-05T03:52:48.707Z,23.51
2022-08-05T03:55:53.361Z,23.47
2022-08-05T03:57:16.728Z,23.50
2022-08-05T04:00:10.050Z,23.51
2022-08-05T04:02:52.019Z,23.48
2022-08-05T04:05:27.882Z,23.45
2022-08-05T04:08:01.920Z,23.44
2022-08-05T04:10:37.110Z,23.57
2022-08-05T04:13:06.723Z,23.63
2022-08-05T04:15:36.199Z,23.64
2022-08-05T04:18:06.851Z,23.70
2022-08-05T04:20:34.178Z,23.73
2022-08-05T04:23:00.812Z,23.69
2022-08-05T04:25:57.805Z,23.84
2022-08-05T04:28:14.369Z,23.82
2022-08-05T04:30:41.734Z,23.93
2022-08-05T04:33:09.792Z,23.97
2022-08-05T04:36:16.375Z,24.12
2022-08-05T04:38:23.540Z,24.19
2022-08-05T04:41:07.345Z,24.24
2022-08-05T04:43:36.336Z,24.30
2022-08-05T04:46:05.041Z,24.40
2022-08-05T04:48:32.240Z,24.42
2022-08-05T04:51:03.097Z,24.51
2022-08-05T04:53:33.653Z,24.55
2022-08-05T04:56:33.408Z,24.76
2022-08-05T04:58:49.691Z,24.80
2022-08-05T05:01:33.478Z,24.90
2022-08-05T05:04:03.127Z,24.96
2022-08-05T05:06:39.538Z,25.00
2022-08-05T05:09:14.242Z,25.13
2022-08-05T05:11:54.570Z,25.24
2022-08-05T05:14:28.003Z,25.31
2022-08-05T05:17:03.357Z,25.46
2022-08-05T05:19:36.976Z,25.55
2022-08-05T05:22:22.920Z,25.73
2022-08-05T05:24:56.886Z,25.91
2022-08-05T05:27:45.068Z,25.97
2022-08-05T05:30:30.927Z,26.02
2022-08-05T05:33:13.879Z,26.12
2022-08-05T05:35:45.798Z,26.28
2022-08-05T05:38:13.821Z,26.21
2022-08-05T05:40:49.678Z,26.56
2022-08-05T05:43:27.544Z,26.82
2022-08-05T05:46:10.619Z,26.87
2022-08-05T05:48:37.453Z,27.01
2022-08-05T05:51:15.070Z,27.16
2022-08-05T05:53:46.113Z,27.30
2022-08-05T05:56:25.967Z,27.78
2022-08-05T05:59:03.284Z,29.09
2022-08-05T06:01:36.900Z,31.60
2022-08-05T06:04:05.931Z,34.30
2022-08-05T06:06:34.882Z,36.28
2022-08-05T06:09:07.650Z,36.95
2022-08-05T06:11:39.359Z,38.15
2022-08-05T06:14:06.323Z,40.09
2022-08-05T06:16:37.195Z,41.89
2022-08-05T06:19:07.210Z,43.29
2022-08-05T06:21:37.581Z,44.43
2022-08-05T06:24:11.395Z,45.38
2022-08-05T06:26:51.241Z,45.14
2022-08-05T06:29:42.932Z,45.22
2022-08-05T06:32:21.065Z,46.28
2022-08-05T06:34:53.408Z,46.46
2022-08-05T06:37:56.424Z,47.12
2022-08-05T06:40:10.049Z,46.86
2022-08-05T06:42:37.079Z,47.80
2022-08-05T06:45:08.468Z,47.47
2022-08-05T06:48:46.922Z,48.30
2022-08-05T06:50:21.922Z,47.93
2022-08-05T06:52:58.436Z,47.91
2022-08-05T06:55:25.735Z,48.18
2022-08-05T06:58:03.812Z,46.90
2022-08-05T07:00:41.127Z,47.69
2022-08-05T07:03:09.830Z,47.49
2022-08-05T07:05:37.835Z,47.22
2022-08-05T07:08:10.893Z,47.57
2022-08-05T07:10:38.182Z,46.92
2022-08-05T07:13:54.297Z,45.35
2022-08-05T07:17:58.539Z,45.63
2022-08-05T07:19:44.221Z,46.08
2022-08-05T07:22:07.204Z,45.07
2022-08-05T07:24:35.161Z,44.78
2022-08-05T07:27:10.691Z,43.82
2022-08-05T07:30:23.826Z,44.73
2022-08-05T07:32:26.104Z,45.95
2022-08-05T07:34:57.951Z,45.34
2022-08-05T07:37:29.211Z,47.29
2022-08-05T07:40:26.223Z,48.64
2022-08-05T07:42:49.635Z,50.23
2022-08-05T07:45:16.372Z,50.63
2022-08-05T07:47:58.011Z,50.90
2022-08-05T07:50:32.399Z,51.46
2022-08-05T07:52:59.049Z,52.17
2022-08-05T07:55:44.259Z,53.20
2022-08-05T07:58:17.668Z,52.90
2022-08-05T08:00:59.656Z,52.40
2022-08-05T08:03:44.050Z,53.89
2022-08-05T08:06:11.504Z,54.52
2022-08-05T08:08:38.190Z,52.54
2022-08-05T08:11:04.964Z,50.68
2022-08-05T08:13:42.987Z,51.68
2022-08-05T08:16:34.875Z,50.83
2022-08-05T08:19:03.029Z,50.79
2022-08-05T08:21:29.659Z,50.78
2022-08-05T08:24:02.892Z,52.61
2022-08-05T08:26:31.964Z,54.13
2022-08-05T08:29:45.284Z,54.44
2022-08-05T08:31:49.931Z,54.13
2022-08-05T08:34:30.389Z,51.82
2022-08-05T08:37:04.688Z,53.45
2022-08-05T08:39:31.644Z,53.29
2022-08-05T08:42:10.376Z,50.92
2022-08-05T08:44:54.958Z,50.69
2022-08-05T08:48:06.618Z,52.24
2022-08-05T08:51:04.161Z,54.10
2022-08-05T08:53:18.620Z,50.89
2022-08-05T08:56:03.175Z,50.84
2022-08-05T08:58:43.604Z,50.04
2022-08-05T09:01:17.144Z,51.75
2022-08-05T09:03:55.060Z,52.30
2022-08-05T09:06:24.196Z,52.96
2022-08-05T09:08:55.468Z,53.65
2022-08-05T09:11:51.504Z,52.98
2022-08-05T09:14:57.459Z,51.50
2022-08-05T09:16:57.979Z,48.19
2022-08-05T09:19:27.977Z,48.58
2022-08-05T09:22:28.835Z,48.07
2022-08-05T09:25:01.383Z,49.60
2022-08-05T09:28:03.867Z,50.62
2022-08-05T09:30:23.434Z,49.16
2022-08-05T09:32:51.609Z,49.92
2022-08-05T09:35:26.288Z,47.92
2022-08-05T09:38:12.221Z,46.91
2022-08-05T09:40:51.738Z,46.10
2022-08-05T09:43:40.761Z,46.39
2022-08-05T09:46:28.006Z,45.41
2022-08-05T09:49:07.990Z,44.27
2022-08-05T09:51:42.601Z,45.18
2022-08-05T09:54:10.219Z,46.08
2022-08-05T09:56:38.524Z,46.34
2022-08-05T09:59:06.386Z,45.36
2022-08-05T10:01:36.322Z,46.06
2022-08-05T10:04:14.049Z,46.37
2022-08-05T10:06:58.712Z,46.94
2022-08-05T10:09:28.034Z,46.73
2022-08-05T10:12:30.088Z,46.16
2022-08-05T10:14:54.375Z,46.18
2022-08-05T10:17:37.249Z,46.37
2022-08-05T10:20:10.851Z,46.55
2022-08-05T10:22:48.516Z,46.94
2022-08-05T10:25:17.852Z,46.27
2022-08-05T10:28:16.818Z,45.35
2022-08-05T10:31:20.240Z,45.63
2022-08-05T10:33:28.969Z,45.97
2022-08-05T10:35:59.693Z,45.96
2022-08-05T10:38:29.298Z,45.65
2022-08-05T10:41:23.581Z,45.16
2022-08-05T10:44:07.145Z,44.22
2022-08-05T10:46:56.018Z,43.99
2022-08-05T10:49:26.732Z,44.05
2022-08-05T10:52:03.218Z,44.14
2022-08-05T10:55:02.210Z,44.24
2022-08-05T10:57:32.348Z,44.11
2022-08-05T11:00:20.891Z,44.06
2022-08-05T11:03:24.676Z,42.48
2022-08-05T11:06:16.155Z,42.33
2022-08-05T11:09:17.436Z,41.46
2022-08-05T11:11:53.566Z,39.66
2022-08-05T11:14:57.397Z,39.31
2022-08-05T11:18:07.308Z,38.98
2022-08-05T11:20:44.285Z,39.26
2022-08-05T11:23:26.134Z,39.48
2022-08-05T11:26:28.151Z,39.79
2022-08-05T11:29:06.701Z,40.12
2022-08-05T11:31:54.532Z,40.50
2022-08-05T11:34:52.242Z,40.56
2022-08-05T11:38:29.278Z,40.63
2022-08-05T11:41:15.444Z,40.49
2022-08-05T11:44:05.994Z,40.61
2022-08-05T11:47:09.361Z,40.35
2022-08-05T11:49:27.762Z,40.17
2022-08-05T11:51:55.103Z,40.27
2022-08-05T11:54:33.861Z,40.09
2022-08-05T11:57:08.459Z,39.89
2022-08-05T11:59:50.631Z,39.67
2022-08-05T12:02:23.720Z,39.53
2022-08-05T12:04:59.511Z,39.42
2022-08-05T12:08:03.553Z,39.19
2022-08-05T12:10:18.314Z,38.75
2022-08-05T12:12:58.477Z,38.59
2022-08-05T12:15:35.852Z,38.70
2022-08-05T12:18:10.986Z,38.61
2022-08-05T12:20:39.350Z,38.73
2022-08-05T12:23:13.501Z,38.61
2022-08-05T12:25:53.822Z,38.53
2022-08-05T12:28:37.871Z,38.43
2022-08-05T12:31:04.856Z,38.48
2022-08-05T12:33:36.360Z,38.22
2022-08-05T12:36:08.567Z,38.06
2022-08-05T12:38:41.094Z,38.08
2022-08-05T12:41:13.132Z,38.00
2022-08-05T12:44:01.664Z,37.84
2022-08-05T12:46:31.397Z,37.92
2022-08-05T12:49:00.510Z,37.95
2022-08-05T12:52:12.922Z,37.96
2022-08-05T12:54:23.636Z,38.11
2022-08-05T12:57:01.601Z,38.17
2022-08-05T13:01:58.403Z,38.20
2022-08-05T13:02:37.325Z,38.29
2022-08-05T13:05:07.399Z,38.13
2022-08-05T13:10:21.855Z,37.58
2022-08-05T13:12:51.146Z,37.42
2022-08-05T13:15:35.959Z,37.41
2022-08-05T13:18:08.537Z,37.49
2022-08-05T13:20:40.535Z,37.53
2022-08-05T13:23:07.645Z,37.65
2022-08-05T13:25:52.816Z,37.57
2022-08-05T13:28:22.296Z,37.63
2022-08-05T13:30:48.916Z,37.68
2022-08-05T13:34:21.711Z,37.59
2022-08-05T13:36:05.095Z,37.79
2022-08-05T13:38:36.055Z,37.78
2022-08-05T13:41:05.890Z,37.36
2022-08-05T13:43:44.304Z,37.41
2022-08-05T13:46:13.274Z,37.24
2022-08-05T13:48:58.677Z,37.25
2022-08-05T13:51:36.403Z,37.16
2022-08-05T13:54:12.442Z,37.15
2022-08-05T13:56:45.190Z,37.14
2022-08-05T13:59:21.117Z,37.12
2022-08-05T14:01:58.262Z,37.12
2022-08-05T14:05:04.120Z,37.28
2022-08-05T14:08:00.348Z,37.17
2022-08-05T14:10:28.602Z,37.24
2022-08-05T14:12:57.096Z,37.17
2022-08-05T14:16:04.403Z,37.18
2022-08-05T14:18:15.152Z,37.15
2022-08-05T14:20:46.941Z,37.19
2022-08-05T14:23:25.145Z,37.18
2022-08-05T14:25:58.910Z,37.21
2022-08-05T14:28:28.546Z,37.25
2022-08-05T14:30:57.036Z,37.14
2022-08-05T14:33:24.102Z,37.19
2022-08-05T14:35:54.510Z,37.28
2022-08-05T14:38:32.558Z,37.16
2022-08-05T14:41:06.348Z,37.06
2022-08-05T14:44:01.510Z,37.13
2022-08-05T14:46:28.529Z,36.86
2022-08-05T14:48:57.953Z,36.91
2022-08-05T14:51:25.533Z,36.91
2022-08-05T14:54:28.817Z,36.91
2022-08-05T14:56:46.785Z,36.83
2022-08-05T14:59:14.430Z,36.84
2022-08-05T15:01:48.624Z,36.74
2022-08-05T15:04:16.541Z,36.84
2022-08-05T15:06:49.389Z,36.87
2022-08-05T15:09:50.665Z,36.85
2022-08-05T15:12:05.837Z,36.69
2022-08-05T15:14:35.659Z,36.63
2022-08-05T15:17:45.095Z,36.48
2022-08-05T15:19:56.476Z,36.28
2022-08-05T15:22:26.962Z,36.14
2022-08-05T15:24:55.540Z,36.31
2022-08-05T15:27:22.268Z,36.35
2022-08-05T15:29:52.878Z,36.44
2022-08-05T15:32:28.676Z,36.36
2022-08-05T15:34:56.196Z,36.27
2022-08-05T15:38:32.532Z,36.36
2022-08-05T15:41:04.036Z,36.41
2022-08-05T15:43:09.287Z,36.36
2022-08-05T15:45:43.842Z,36.27
2022-08-05T15:48:13.991Z,36.23
2022-08-05T15:50:41.559Z,36.20
2022-08-05T15:53:12.787Z,36.13
2022-08-05T15:56:01.238Z,36.21
2022-08-05T15:58:28.504Z,36.08
2022-08-05T16:01:11.527Z,35.73
2022-08-05T16:03:42.982Z,35.95
2022-08-05T16:06:11.469Z,35.91
2022-08-05T16:08:38.989Z,35.85
2022-08-05T16:11:07.280Z,35.71
2022-08-05T16:13:35.158Z,35.71
2022-08-05T16:16:05.399Z,35.64
2022-08-05T16:18:35.242Z,35.67
2022-08-05T16:21:18.790Z,35.67
2022-08-05T16:23:53.121Z,35.75
2022-08-05T16:26:26.586Z,35.66
2022-08-05T16:28:54.389Z,35.55
2022-08-05T16:31:21.554Z,35.40
2022-08-05T16:33:49.091Z,35.45
2022-08-05T16:36:20.347Z,35.31
2022-08-05T16:38:54.427Z,35.42
2022-08-05T16:42:27.673Z,35.21
2022-08-05T16:44:14.429Z,35.11
2022-08-05T16:46:55.470Z,35.12
2022-08-05T16:49:23.505Z,35.07
2022-08-05T16:51:51.373Z,34.89
2022-08-05T16:54:27.530Z,34.84
2022-08-05T16:56:58.591Z,34.68
2022-08-05T16:59:25.240Z,34.64
2022-08-05T17:01:56.091Z,34.67
2022-08-05T17:04:27.831Z,34.65
2022-08-05T17:07:01.878Z,34.56
2022-08-05T17:09:30.579Z,34.49
2022-08-05T17:12:05.894Z,34.34
2022-08-05T17:14:38.089Z,34.30
2022-08-05T17:17:09.428Z,34.28
2022-08-05T17:19:43.853Z,34.28
2022-08-05T17:22:17.803Z,34.12
2022-08-05T17:24:57.807Z,33.96
2022-08-05T17:27:33.827Z,33.92
2022-08-05T17:30:02.442Z,33.74
2022-08-05T17:32:29.867Z,33.58
2022-08-05T17:34:58.258Z,33.45
2022-08-05T17:37:35.921Z,33.36
2022-08-05T17:40:14.491Z,33.27
2022-08-05T17:42:49.765Z,33.10
2022-08-05T17:45:21.087Z,32.95
2022-08-05T17:47:53.936Z,32.77
2022-08-05T17:50:29.444Z,32.67
2022-08-05T17:53:02.305Z,32.59
2022-08-05T17:55:38.255Z,32.47
2022-08-05T17:58:09.368Z,32.32
2022-08-05T18:00:37.011Z,32.18
2022-08-05T18:03:11.644Z,32.08
2022-08-05T18:05:53.668Z,31.97
2022-08-05T18:08:20.995Z,31.90
2022-08-05T18:10:47.693Z,31.79
2022-08-05T18:13:15.262Z,31.66
2022-08-05T18:15:42.595Z,31.62
2022-08-05T18:18:11.596Z,31.38
2022-08-05T18:20:38.903Z,31.34
2022-08-05T18:23:11.449Z,31.27
2022-08-05T18:25:45.230Z,31.22
2022-08-05T18:28:17.541Z,31.07
2022-08-05T18:30:50.857Z,31.02
2022-08-05T18:33:23.130Z,30.94
2022-08-05T18:36:03.868Z,30.77
2022-08-05T18:38:35.823Z,30.69
2022-08-05T18:41:57.225Z,30.43
2022-08-05T18:43:50.093Z,30.50
2022-08-05T18:46:20.306Z,30.34
2022-08-05T18:48:52.100Z,30.23
2022-08-05T18:52:04.189Z,30.16
2022-08-05T18:54:31.719Z,30.04
2022-08-05T18:57:01.949Z,29.97
2022-08-05T18:59:43.707Z,29.96
2022-08-05T19:02:27.545Z,29.88
2022-08-05T19:05:03.174Z,29.81
2022-08-05T19:07:45.974Z,29.74
2022-08-05T19:10:13.174Z,29.61
2022-08-05T19:12:40.302Z,29.44
2022-08-05T19:15:25.200Z,29.41
2022-08-05T19:17:59.113Z,29.33
2022-08-05T19:20:37.055Z,29.31
2022-08-05T19:23:08.525Z,29.31
2022-08-05T19:26:02.015Z,29.34
2022-08-05T19:28:30.392Z,29.26
2022-08-05T19:30:57.007Z,29.22
2022-08-05T19:33:35.846Z,29.19
2022-08-05T19:36:06.475Z,29.11
2022-08-05T19:38:35.830Z,29.09
2022-08-05T19:41:07.381Z,28.91
2022-08-05T19:44:06.019Z,28.94
2022-08-05T19:46:29.460Z,28.86
2022-08-05T19:49:01.120Z,28.79
2022-08-05T19:52:04.663Z,28.83
2022-08-05T19:54:28.409Z,28.75
2022-08-05T19:56:59.315Z,28.77
2022-08-05T20:00:01.711Z,28.67
2022-08-05T20:02:14.492Z,28.62
2022-08-05T20:04:43.238Z,28.55
2022-08-05T20:07:13.645Z,28.65
2022-08-05T20:09:54.079Z,28.50
2022-08-05T20:12:22.665Z,28.30
2022-08-05T20:14:52.239Z,28.39
2022-08-05T20:17:23.324Z,28.39
2022-08-05T20:19:57.028Z,28.25
2022-08-05T20:22:26.734Z,28.19
2022-08-05T20:24:54.771Z,28.15
2022-08-05T20:27:26.837Z,28.08
2022-08-05T20:29:58.547Z,28.01
2022-08-05T20:32:26.242Z,28.16
2022-08-05T20:34:53.098Z,27.95
2022-08-05T20:38:06.705Z,27.81
2022-08-05T20:40:07.256Z,27.46
2022-08-05T20:42:34.581Z,27.12
2022-08-05T20:45:02.310Z,27.48
2022-08-05T20:47:32.372Z,27.64
2022-08-05T20:49:59.504Z,27.57
2022-08-05T20:52:26.531Z,27.45
2022-08-05T20:55:15.810Z,26.96
2022-08-05T20:57:43.730Z,27.28
2022-08-05T21:00:36.336Z,27.42
2022-08-05T21:03:07.014Z,27.46
2022-08-05T21:05:47.988Z,27.46
2022-08-05T21:08:20.987Z,27.42
2022-08-05T21:10:53.616Z,27.48
2022-08-05T21:13:37.891Z,27.55
2022-08-05T21:16:07.200Z,27.54
2022-08-05T21:18:34.330Z,27.49
2022-08-05T21:21:02.417Z,27.46
2022-08-05T21:23:29.005Z,27.46
2022-08-05T21:26:04.247Z,27.49
2022-08-05T21:28:50.594Z,27.53
2022-08-05T21:31:17.401Z,27.43
2022-08-05T21:33:47.713Z,27.49
2022-08-05T21:36:27.577Z,27.47
2022-08-05T21:38:56.946Z,27.42
2022-08-05T21:41:26.018Z,27.38
2022-08-05T21:44:03.605Z,27.36
2022-08-05T21:46:34.931Z,27.24
2022-08-05T21:49:08.082Z,27.14
2022-08-05T21:52:28.153Z,27.16
2022-08-05T21:54:40.366Z,27.11
2022-08-05T21:57:31.200Z,27.06
2022-08-05T22:00:05.747Z,26.95
2022-08-05T22:02:33.222Z,26.96
2022-08-05T22:05:00.535Z,26.92
2022-08-05T22:07:40.420Z,26.90
2022-08-05T22:10:15.784Z,26.79
2022-08-05T22:12:45.042Z,26.80
2022-08-05T22:16:00.888Z,26.77
2022-08-05T22:18:06.212Z,26.75
2022-08-05T22:20:35.587Z,26.73
2022-08-05T22:23:24.595Z,26.66
2022-08-05T22:26:11.867Z,26.64
2022-08-05T22:28:41.792Z,26.58
2022-08-05T22:31:08.655Z,26.59
2022-08-05T22:33:58.439Z,26.52
2022-08-05T22:36:24.614Z,26.51
2022-08-05T22:38:53.705Z,26.38
2022-08-05T22:41:26.378Z,26.50
2022-08-05T22:44:08.443Z,26.49
2022-08-05T22:46:39.439Z,26.44
2022-08-05T22:49:07.319Z,26.55
2022-08-05T22:52:06.101Z,26.32
2022-08-05T22:54:35.413Z,26.25
2022-08-05T22:57:02.870Z,26.23
2022-08-05T22:59:43.749Z,26.19
2022-08-05T23:02:13.787Z,26.16
2022-08-05T23:04:52.070Z,26.13
2022-08-05T23:07:19.678Z,26.14
2022-08-05T23:09:57.493Z,26.08
2022-08-05T23:12:32.988Z,26.02
2022-08-05T23:15:08.748Z,26.01
2022-08-05T23:17:37.445Z,26.02
2022-08-05T23:20:17.505Z,25.96
2022-08-05T23:22:47.713Z,25.96
2022-08-05T23:25:51.046Z,25.91
2022-08-05T23:28:07.047Z,25.87
2022-08-05T23:30:40.614Z,25.86
2022-08-05T23:33:19.052Z,25.84
2022-08-05T23:35:52.671Z,25.78
2022-08-05T23:38:23.462Z,25.75
2022-08-05T23:40:52.703Z,25.74
2022-08-05T23:43:25.066Z,25.72
2022-08-05T23:46:21.025Z,25.75
2022-08-05T23:49:00.214Z,25.86
2022-08-05T23:51:53.612Z,25.64
2022-08-05T23:54:30.151Z,25.58
2022-08-05T23:57:03.539Z,25.69
2022-08-05T23:59:37.770Z,25.54
